Latest Weather Observations for Spitfire Channel

IDQ60901

Issued at 4:21 am EST Saturday 4 April 2020 (issued every 10 minutes, with the page automatically refreshed every 10 minutes)

About weather observations | Map of Brisbane area stations | Latest observations for Brisbane area | Other Formats
Station Details ID: 040927 Name: SPITFIRE CHANNEL BEACON Lat: -27.05 Lon: 153.27 Height: 7.0 m
Data from the previous 72 hours. | See also: Recent months at Spitfire Channel
Date/Time
EST
Temp
°C
App
Temp
°C
Dew
Point
°C
Rel
Hum
%
Delta-T
°C
Wind Press
QNH
hPa
Press
MSL
hPa
Rain since
9am
mm
Dir  Spd
km/h
Gust
km/h
Spd
kts
Gust
kts
04/04:00am - - - - - NNW 30 35 16 19 - - -
04/03:30am - - - - - NNW 30 37 16 20 - - -
04/03:00am - - - - - NNW 30 37 16 20 - - -
04/02:30am - - - - - NNW 32 37 17 20 - - -
04/02:00am - - - - - NNW 30 35 16 19 - - -
04/01:30am - - - - - NNW 30 35 16 19 - - -
04/01:00am - - - - - NNW 30 35 16 19 - - -
04/12:30am - - - - - NNW 28 32 15 17 - - -
04/12:00am - - - - - NNW 24 28 13 15 - - -
 
Date/Time
EST
Temp
°C
App
Temp
°C
Dew
Point
°C
Rel
Hum
%
Delta-T
°C
Wind Press
QNH
hPa
Press
MSL
hPa
Rain since
9am
mm
Dir  Spd
km/h
Gust
km/h
Spd
kts
Gust
kts
03/11:30pm - - - - - N 30 35 16 19 - - -
03/11:00pm - - - - - N 32 37 17 20 - - -
03/10:30pm - - - - - NNW 28 35 15 19 - - -
03/10:00pm - - - - - N 28 33 15 18 - - -
03/09:30pm - - - - - N 28 32 15 17 - - -
03/09:00pm - - - - - N 28 32 15 17 - - -
03/08:30pm - - - - - N 26 32 14 17 - - -
03/08:00pm - - - - - N 26 32 14 17 - - -
03/07:30pm - - - - - N 26 32 14 17 - - -
03/07:00pm - - - - - N 28 35 15 19 - - -
03/06:30pm - - - - - N 24 30 13 16 - - -
03/06:00pm - - - - - N 24 26 13 14 - - -
03/05:30pm - - - - - N 22 26 12 14 - - -
03/05:00pm - - - - - N 22 24 12 13 - - -
03/04:30pm - - - - - N 19 22 10 12 - - -
03/04:00pm - - - - - NNE 20 24 11 13 - - -
03/03:30pm - - - - - NNE 19 24 10 13 - - -
03/03:00pm - - - - - NNE 20 24 11 13 - - -
03/02:30pm - - - - - NNE 22 24 12 13 - - -
03/02:00pm - - - - - N 20 24 11 13 - - -
03/01:30pm - - - - - N 19 20 10 11 - - -
03/01:00pm - - - - - N 19 22 10 12 - - -
03/12:30pm - - - - - N 15 19 8 10 - - -
03/12:00pm - - - - - N 15 17 8 9 - - -
03/11:30am - - - - - N 13 15 7 8 - - -
03/11:00am - - - - - N 15 19 8 10 - - -
03/10:30am - - - - - NNW 9 11 5 6 - - -
03/10:00am - - - - - NNW 4 6 2 3 - - -
03/09:30am - - - - - NNW 2 6 1 3 - - -
03/09:00am - - - - - WSW 4 6 2 3 - - -
03/08:30am - - - - - SW 6 7 3 4 - - -
03/08:00am - - - - - SW 6 6 3 3 - - -
03/07:30am - - - - - SW 7 7 4 4 - - -
03/07:00am - - - - - WSW 9 9 5 5 - - -
03/06:30am - - - - - SW 6 7 3 4 - - -
03/06:00am - - - - - SW 7 9 4 5 - - -
03/05:30am - - - - - SW 4 6 2 3 - - -
03/05:00am - - - - - SW 9 11 5 6 - - -
03/04:30am - - - - - SW 9 13 5 7 - - -
03/04:00am - - - - - SW 13 15 7 8 - - -
03/03:30am - - - - - SW 9 11 5 6 - - -
03/03:00am - - - - - WSW 13 15 7 8 - - -
03/02:30am - - - - - W 9 15 5 8 - - -
03/02:00am - - - - - W 4 7 2 4 - - -
03/01:30am - - - - - W 6 9 3 5 - - -
03/01:00am - - - - - CALM 0 0 0 0 - - -
03/12:30am - - - - - WSW 6 7 3 4 - - -
03/12:00am - - - - - W 7 11 4 6 - - -
 
Date/Time
EST
Temp
°C
App
Temp
°C
Dew
Point
°C
Rel
Hum
%
Delta-T
°C
Wind Press
QNH
hPa
Press
MSL
hPa
Rain since
9am
mm
Dir  Spd
km/h
Gust
km/h
Spd
kts
Gust
kts
02/11:30pm - - - - - WSW 2 4 1 2 - - -
02/11:00pm - - - - - WSW 4 6 2 3 - - -
02/10:30pm - - - - - CALM 0 0 0 0 - - -
02/10:00pm - - - - - CALM 0 0 0 0 - - -
02/09:30pm - - - - - CALM 0 0 0 0 - - -
02/09:00pm - - - - - ENE 4 6 2 3 - - -
02/08:30pm - - - - - ENE 9 11 5 6 - - -
02/08:00pm - - - - - E 11 13 6 7 - - -
02/07:30pm - - - - - E 9 11 5 6 - - -
02/07:00pm - - - - - E 9 11 5 6 - - -
02/06:30pm - - - - - E 9 11 5 6 - - -
02/06:00pm - - - - - E 9 13 5 7 - - -
02/05:30pm - - - - - ENE 7 9 4 5 - - -
02/05:00pm - - - - - CALM 0 2 0 1 - - -
02/04:30pm - - - - - CALM 0 2 0 1 - - -
02/04:00pm - - - - - CALM 0 0 0 0 - - -
02/03:30pm - - - - - WNW 6 7 3 4 - - -
02/03:00pm - - - - - WNW 6 7 3 4 - - -
02/02:30pm - - - - - CALM 0 0 0 0 - - -
02/02:00pm - - - - - S 6 7 3 4 - - -
02/01:30pm - - - - - SSW 4 7 2 4 - - -
02/01:00pm - - - - - SSE 4 7 2 4 - - -
02/12:30pm - - - - - SSW 7 11 4 6 - - -
02/12:00pm - - - - - SSW 13 15 7 8 - - -
02/11:30am - - - - - SSE 9 11 5 6 - - -
02/11:00am - - - - - SE 11 15 6 8 - - -
02/10:30am - - - - - ESE 13 17 7 9 - - -
02/10:00am - - - - - ESE 15 19 8 10 - - -
02/09:30am - - - - - ESE 17 19 9 10 - - -
02/09:00am - - - - - ESE 17 20 9 11 - - -
02/08:30am - - - - - ESE 15 19 8 10 - - -
02/08:00am - - - - - ESE 19 20 10 11 - - -
02/07:30am - - - - - ESE 19 22 10 12 - - -
02/07:00am - - - - - SE 17 20 9 11 - - -
02/06:30am - - - - - SE 17 20 9 11 - - -
02/06:00am - - - - - SE 15 17 8 9 - - -
02/05:30am - - - - - SE 15 19 8 10 - - -
02/05:00am - - - - - ESE 19 20 10 11 - - -
02/04:30am - - - - - SE 13 15 7 8 - - -
02/04:00am - - - - - ESE 11 13 6 7 - - -
02/03:30am - - - - - ESE 13 20 7 11 - - -
02/03:00am - - - - - ESE 11 15 6 8 - - -
02/02:30am - - - - - ENE 19 20 10 11 - - -
02/02:00am - - - - - SE 13 17 7 9 - - -
02/01:30am - - - - - SE 13 17 7 9 - - -
02/01:00am - - - - - ESE 15 17 8 9 - - -
02/12:30am - - - - - ESE 17 20 9 11 - - -
02/12:00am - - - - - ESE 17 20 9 11 - - -
 
Date/Time
EST
Temp
°C
App
Temp
°C
Dew
Point
°C
Rel
Hum
%
Delta-T
°C
Wind Press
QNH
hPa
Press
MSL
hPa
Rain since
9am
mm
Dir  Spd
km/h
Gust
km/h
Spd
kts
Gust
kts
01/11:30pm - - - - - ESE 20 24 11 13 - - -
01/11:00pm - - - - - ESE 19 24 10 13 - - -
01/10:30pm - - - - - ESE 17 20 9 11 - - -
01/10:00pm - - - - - SE 15 19 8 10 - - -
01/09:30pm - - - - - SE 13 17 7 9 - - -
01/09:00pm - - - - - ESE 13 17 7 9 - - -
01/08:30pm - - - - - ESE 13 17 7 9 - - -
01/08:00pm - - - - - ESE 15 19 8 10 - - -
01/07:30pm - - - - - ESE 20 24 11 13 - - -
01/07:00pm - - - - - ESE 22 26 12 14 - - -
01/06:30pm - - - - - ESE 22 28 12 15 - - -
01/06:00pm - - - - - ESE 24 28 13 15 - - -
01/05:30pm - - - - - ESE 22 26 12 14 - - -
01/05:00pm - - - - - ESE 22 26 12 14 - - -
01/04:30pm - - - - - ESE 26 28 14 15 - - -
01/04:00pm - - - - - ESE 24 30 13 16 - - -
01/03:30pm - - - - - SE 24 28 13 15 - - -
01/03:00pm - - - - - ESE 22 28 12 15 - - -
01/02:30pm - - - - - ESE 22 26 12 14 - - -
01/02:00pm - - - - - ESE 22 28 12 15 - - -
01/01:30pm - - - - - SE 20 26 11 14 - - -
01/01:00pm - - - - - SE 20 28 11 15 - - -
01/12:30pm - - - - - SSE 20 24 11 13 - - -
01/12:00pm - - - - - SSE 22 28 12 15 - - -
01/11:30am - - - - - S 22 26 12 14 - - -
01/11:00am - - - - - S 20 24 11 13 - - -
01/10:30am - - - - - SSE 24 30 13 16 - - -
01/10:00am - - - - - SSE 24 30 13 16 - - -
01/09:30am - - - - - SSE 24 28 13 15 - - -
01/09:00am - - - - - SSE 28 30 15 16 - - -
01/08:30am - - - - - SSE 26 30 14 16 - - -
01/08:00am - - - - - S 26 32 14 17 - - -
01/07:30am - - - - - S 22 28 12 15 - - -
01/07:00am - - - - - S 24 28 13 15 - - -
01/06:30am - - - - - S 24 28 13 15 - - -
01/06:00am - - - - - S 22 26 12 14 - - -
01/05:30am - - - - - S 22 24 12 13 - - -
01/05:00am - - - - - S 22 26 12 14 - - -
01/04:30am - - - - - S 24 28 13 15 - - -

Latest Capital City Observations: Canberra | Sydney | Melbourne | Brisbane | Adelaide | Perth | Hobart | Darwin

Other formats

Comma delimited format used in spreadsheet applications
http://www.bom.gov.au/fwo/IDQ60901/IDQ60901.94581.axf

JavaScript Object Notation format (JSON) in row-major order
http://www.bom.gov.au/fwo/IDQ60901/IDQ60901.94581.json

Data quality

Most of these data are generated automatically and are frequently updated. Quality checks on data are not normally performed. It is possible for incorrect values to appear. Refer to information at About Latest Weather Observations and please check the disclaimer before using these data.